AFL783 UUDD-UTAA
Flight info
| Callsign | AFL783 |
|---|---|
| Flight time | N/A |
| Altitude | 41000 |
| Route | LINRU4N LINRU T614 OSPER T828 OLBEG N72 WGD A927 SL/K0900F400 A964 NOKLI/K0902F410 N72 DUBOS/K0889F390 W87 LIDUS/K0893F400 G242 ZG/K0885F390 G242 BABUR/K0898F410 N193 NOGBU Q161 TIROM/N0488F410 A87 MAMED MAM29A |
| Aircraft | A359/H-SDE2E3GHIJ3J4J5LM1ORWXY/LB1D1 |
Departure
| Time | N/A |
|---|---|
| Airport | Domodedovo International Airport (UUDD) |
Arrival
| Time | 2026-04-29 21:24 |
|---|---|
| Airport | Ashgabat International Airport (UTAA) |
| Time | Latitude | Longitude | Altitude | Speed | Heading |
|---|---|---|---|---|---|
| 2026-04-29 18:23 | 54.69867 | 38.05087 | 24743 ft | 391 kts | 167° |
| 2026-04-29 18:23 | 54.67264 | 38.06448 | 25471 ft | 391 kts | 166° |
| 2026-04-29 18:23 | 54.64664 | 38.07831 | 26115 ft | 392 kts | 165° |
| 2026-04-29 18:23 | 54.62053 | 38.09225 | 26698 ft | 394 kts | 163° |
| 2026-04-29 18:24 | 54.59421 | 38.10629 | 27216 ft | 398 kts | 162° |
| 2026-04-29 18:24 | 54.56753 | 38.12051 | 27677 ft | 403 kts | 162° |
| 2026-04-29 18:24 | 54.54051 | 38.13490 | 28080 ft | 410 kts | 161° |
| 2026-04-29 18:24 | 54.51304 | 38.14952 | 28417 ft | 417 kts | 160° |
| 2026-04-29 18:25 | 54.48507 | 38.16445 | 28732 ft | 425 kts | 160° |
| 2026-04-29 18:25 | 54.45659 | 38.17965 | 29025 ft | 432 kts | 160° |
| 2026-04-29 18:25 | 54.42756 | 38.19512 | 29302 ft | 440 kts | 160° |
| 2026-04-29 18:25 | 54.39805 | 38.21082 | 29562 ft | 448 kts | 160° |
| 2026-04-29 18:26 | 54.36797 | 38.22679 | 29851 ft | 456 kts | 160° |
| 2026-04-29 18:26 | 54.33781 | 38.24466 | 30146 ft | 461 kts | 156° |
| 2026-04-29 18:26 | 54.30803 | 38.26572 | 30460 ft | 466 kts | 154° |
| 2026-04-29 18:26 | 54.27835 | 38.28822 | 30994 ft | 465 kts | 153° |
| 2026-04-29 18:27 | 54.24945 | 38.31073 | 31642 ft | 461 kts | 153° |
| 2026-04-29 18:27 | 54.21993 | 38.33383 | 32228 ft | 459 kts | 153° |
| 2026-04-29 18:27 | 54.19124 | 38.35617 | 32720 ft | 459 kts | 153° |
| 2026-04-29 18:27 | 54.16220 | 38.37859 | 33192 ft | 458 kts | 154° |
| 2026-04-29 18:28 | 54.13316 | 38.40084 | 33603 ft | 458 kts | 154° |
| 2026-04-29 18:28 | 54.10398 | 38.42307 | 33973 ft | 459 kts | 155° |
| 2026-04-29 18:28 | 54.07473 | 38.44526 | 34278 ft | 461 kts | 155° |
| 2026-04-29 18:28 | 54.04541 | 38.46743 | 34619 ft | 461 kts | 156° |
| 2026-04-29 18:29 | 54.01605 | 38.48958 | 35016 ft | 461 kts | 156° |
| 2026-04-29 18:29 | 53.99631 | 38.50447 | 35247 ft | 461 kts | 156° |
| 2026-04-29 18:29 | 53.95739 | 38.53376 | 35647 ft | 462 kts | 157° |
| 2026-04-29 18:29 | 53.92796 | 38.55586 | 35867 ft | 464 kts | 158° |
| 2026-04-29 18:30 | 53.89824 | 38.57814 | 36058 ft | 468 kts | 158° |
| 2026-04-29 18:30 | 53.86837 | 38.60050 | 36206 ft | 472 kts | 158° |
| 2026-04-29 18:30 | 53.83819 | 38.62305 | 36345 ft | 476 kts | 158° |
| 2026-04-29 18:30 | 53.80775 | 38.64575 | 36481 ft | 480 kts | 158° |
| 2026-04-29 18:31 | 53.77701 | 38.66866 | 36648 ft | 483 kts | 158° |
| 2026-04-29 18:31 | 53.74625 | 38.69157 | 36960 ft | 483 kts | 158° |
| 2026-04-29 18:31 | 53.71561 | 38.71437 | 37318 ft | 481 kts | 158° |
| 2026-04-29 18:31 | 53.68499 | 38.73712 | 37638 ft | 480 kts | 158° |
| 2026-04-29 18:32 | 53.65447 | 38.75976 | 37919 ft | 480 kts | 158° |
| 2026-04-29 18:32 | 53.59337 | 38.80500 | 38551 ft | 477 kts | 159° |
| 2026-04-29 18:32 | 53.56308 | 38.82735 | 38877 ft | 475 kts | 159° |
| 2026-04-29 18:33 | 53.53277 | 38.84966 | 39085 ft | 476 kts | 159° |
| 2026-04-29 18:33 | 53.50244 | 38.87193 | 39281 ft | 476 kts | 159° |
| 2026-04-29 18:33 | 53.47208 | 38.89419 | 39507 ft | 477 kts | 159° |
| 2026-04-29 18:33 | 53.44171 | 38.91644 | 39725 ft | 477 kts | 159° |
| 2026-04-29 18:34 | 53.41126 | 38.93859 | 39938 ft | 476 kts | 159° |
| 2026-04-29 18:34 | 53.39104 | 38.95292 | 40063 ft | 476 kts | 160° |
| 2026-04-29 18:34 | 53.35013 | 38.98137 | 40331 ft | 476 kts | 160° |
| 2026-04-29 18:34 | 53.31948 | 39.00251 | 40535 ft | 476 kts | 160° |
| 2026-04-29 18:35 | 53.28886 | 39.02363 | 40717 ft | 476 kts | 160° |
| 2026-04-29 18:35 | 53.25828 | 39.04476 | 40903 ft | 476 kts | 160° |
| 2026-04-29 18:35 | 53.22806 | 39.06569 | 41081 ft | 476 kts | 160° |
| 2026-04-29 18:35 | 53.19741 | 39.08693 | 41178 ft | 478 kts | 160° |
| 2026-04-29 18:36 | 53.13585 | 39.12955 | 41184 ft | 479 kts | 160° |
| 2026-04-29 18:36 | 53.07430 | 39.17205 | 41184 ft | 479 kts | 160° |
| 2026-04-29 18:37 | 53.01278 | 39.21440 | 41184 ft | 479 kts | 160° |
| 2026-04-29 18:37 | 52.95121 | 39.25662 | 41184 ft | 479 kts | 160° |
| 2026-04-29 18:38 | 52.88957 | 39.29877 | 41185 ft | 479 kts | 160° |
| 2026-04-29 18:38 | 52.82800 | 39.34074 | 41184 ft | 479 kts | 160° |
| 2026-04-29 18:39 | 52.76634 | 39.38265 | 41184 ft | 479 kts | 160° |
| 2026-04-29 18:39 | 52.70470 | 39.42440 | 41184 ft | 479 kts | 160° |
| 2026-04-29 18:40 | 52.64309 | 39.46601 | 41184 ft | 479 kts | 160° |
| 2026-04-29 18:40 | 52.58137 | 39.50758 | 41184 ft | 479 kts | 160° |
| 2026-04-29 18:41 | 52.45847 | 39.58996 | 41183 ft | 478 kts | 160° |
| 2026-04-29 18:42 | 52.39758 | 39.63392 | 41184 ft | 479 kts | 156° |
| 2026-04-29 18:42 | 52.33842 | 39.68420 | 41184 ft | 479 kts | 155° |
| 2026-04-29 18:43 | 52.27942 | 39.73450 | 41184 ft | 478 kts | 156° |
| 2026-04-29 18:43 | 52.22007 | 39.78366 | 41184 ft | 478 kts | 156° |
| 2026-04-29 18:44 | 52.16054 | 39.83218 | 41184 ft | 478 kts | 156° |
| 2026-04-29 18:44 | 52.10100 | 39.88046 | 41184 ft | 478 kts | 156° |
| 2026-04-29 18:45 | 52.04144 | 39.92866 | 41184 ft | 478 kts | 156° |
| 2026-04-29 18:45 | 51.98191 | 39.97681 | 41184 ft | 478 kts | 156° |
| 2026-04-29 18:46 | 51.92240 | 40.02507 | 41184 ft | 478 kts | 156° |
| 2026-04-29 18:46 | 51.86286 | 40.07323 | 41184 ft | 478 kts | 156° |
| 2026-04-29 18:47 | 51.80332 | 40.12131 | 41184 ft | 478 kts | 156° |
| 2026-04-29 18:47 | 51.75381 | 40.16106 | 41184 ft | 478 kts | 156° |
| 2026-04-29 18:48 | 51.69556 | 40.21318 | 41184 ft | 480 kts | 151° |
| 2026-04-29 18:48 | 51.63898 | 40.27078 | 41184 ft | 481 kts | 150° |
| 2026-04-29 18:49 | 51.58267 | 40.32908 | 41184 ft | 481 kts | 150° |
| 2026-04-29 18:49 | 51.52639 | 40.38725 | 41184 ft | 481 kts | 150° |
| 2026-04-29 18:50 | 51.47001 | 40.44507 | 41184 ft | 481 kts | 150° |
| 2026-04-29 18:50 | 51.41359 | 40.50265 | 41184 ft | 481 kts | 150° |
| 2026-04-29 18:51 | 51.35714 | 40.56003 | 41184 ft | 481 kts | 150° |
| 2026-04-29 18:51 | 51.30376 | 40.62477 | 41187 ft | 485 kts | 138° |
| 2026-04-29 18:52 | 51.25654 | 40.70196 | 41184 ft | 486 kts | 136° |
| 2026-04-29 18:52 | 51.21051 | 40.78074 | 41184 ft | 485 kts | 136° |
| 2026-04-29 18:53 | 51.16445 | 40.85941 | 41185 ft | 485 kts | 136° |
| 2026-04-29 18:53 | 51.11816 | 40.93771 | 41184 ft | 485 kts | 137° |
| 2026-04-29 18:54 | 51.07178 | 41.01564 | 41184 ft | 485 kts | 137° |
| 2026-04-29 18:54 | 51.02566 | 41.09288 | 41184 ft | 485 kts | 137° |
| 2026-04-29 18:55 | 50.97887 | 41.17095 | 41184 ft | 485 kts | 137° |
| 2026-04-29 18:55 | 50.93229 | 41.24846 | 41184 ft | 485 kts | 137° |
| 2026-04-29 18:56 | 50.88603 | 41.32522 | 41184 ft | 485 kts | 137° |
| 2026-04-29 18:56 | 50.83902 | 41.40298 | 41184 ft | 485 kts | 137° |
| 2026-04-29 18:57 | 50.79229 | 41.48003 | 41184 ft | 485 kts | 137° |
| 2026-04-29 18:57 | 50.74582 | 41.55644 | 41184 ft | 485 kts | 137° |
| 2026-04-29 18:58 | 50.69898 | 41.63321 | 41184 ft | 485 kts | 137° |
| 2026-04-29 18:58 | 50.65221 | 41.70972 | 41185 ft | 485 kts | 137° |
| 2026-04-29 18:59 | 50.60538 | 41.78621 | 41184 ft | 485 kts | 137° |
| 2026-04-29 18:59 | 50.55848 | 41.86250 | 41184 ft | 485 kts | 137° |
| 2026-04-29 19:00 | 50.51153 | 41.93865 | 41185 ft | 485 kts | 137° |
| 2026-04-29 19:00 | 50.46464 | 42.01451 | 41184 ft | 484 kts | 137° |
| 2026-04-29 19:01 | 50.41765 | 42.09029 | 41184 ft | 484 kts | 137° |
| 2026-04-29 19:01 | 50.37067 | 42.16583 | 41184 ft | 484 kts | 137° |
| 2026-04-29 19:02 | 50.33112 | 42.22784 | 41208 ft | 482 kts | 141° |
| 2026-04-29 19:02 | 50.27252 | 42.30872 | 41211 ft | 480 kts | 144° |
| 2026-04-29 19:03 | 50.22199 | 42.37700 | 41210 ft | 480 kts | 143° |
| 2026-04-29 19:03 | 50.17178 | 42.44594 | 41211 ft | 481 kts | 143° |
| 2026-04-29 19:04 | 50.12182 | 42.51509 | 41211 ft | 481 kts | 143° |
| 2026-04-29 19:04 | 50.07216 | 42.58376 | 41211 ft | 481 kts | 143° |
| 2026-04-29 19:05 | 50.02203 | 42.65283 | 41212 ft | 481 kts | 143° |
| 2026-04-29 19:05 | 49.97192 | 42.72162 | 41211 ft | 481 kts | 143° |
| 2026-04-29 19:06 | 49.92176 | 42.79027 | 41212 ft | 481 kts | 143° |
| 2026-04-29 19:07 | 49.84641 | 42.89303 | 41211 ft | 481 kts | 143° |
| 2026-04-29 19:07 | 49.79615 | 42.96133 | 41211 ft | 480 kts | 143° |
| 2026-04-29 19:08 | 49.74588 | 43.02944 | 41211 ft | 480 kts | 143° |
| 2026-04-29 19:08 | 49.69558 | 43.09740 | 41211 ft | 480 kts | 143° |
| 2026-04-29 19:09 | 49.64523 | 43.16524 | 41211 ft | 480 kts | 143° |
| 2026-04-29 19:09 | 49.59487 | 43.23290 | 41211 ft | 480 kts | 143° |
| 2026-04-29 19:10 | 49.54442 | 43.30048 | 41211 ft | 480 kts | 143° |
| 2026-04-29 19:10 | 49.49393 | 43.36793 | 41211 ft | 480 kts | 143° |
| 2026-04-29 19:11 | 49.44343 | 43.43520 | 41211 ft | 480 kts | 143° |
| 2026-04-29 19:11 | 49.39292 | 43.50228 | 41211 ft | 481 kts | 143° |
| 2026-04-29 19:12 | 49.34228 | 43.56936 | 41211 ft | 481 kts | 144° |
| 2026-04-29 19:12 | 49.29166 | 43.63624 | 41211 ft | 480 kts | 144° |
| 2026-04-29 19:13 | 49.24112 | 43.70303 | 41211 ft | 481 kts | 143° |
| 2026-04-29 19:13 | 49.19171 | 43.77212 | 41212 ft | 482 kts | 142° |
| 2026-04-29 19:14 | 49.14263 | 43.84196 | 41211 ft | 482 kts | 142° |
| 2026-04-29 19:14 | 49.09368 | 43.91087 | 41212 ft | 482 kts | 142° |
| 2026-04-29 19:15 | 49.04418 | 43.97991 | 41211 ft | 481 kts | 142° |
| 2026-04-29 19:15 | 48.99472 | 44.04855 | 41211 ft | 481 kts | 143° |
| 2026-04-29 19:16 | 48.94515 | 44.11717 | 41211 ft | 481 kts | 143° |
| 2026-04-29 19:16 | 48.89556 | 44.18563 | 41210 ft | 481 kts | 143° |
| 2026-04-29 19:17 | 48.84596 | 44.25394 | 41211 ft | 482 kts | 143° |
| 2026-04-29 19:17 | 48.79668 | 44.32305 | 41211 ft | 485 kts | 139° |
| 2026-04-29 19:18 | 48.75608 | 44.40564 | 41211 ft | 493 kts | 127° |
| 2026-04-29 19:18 | 48.72067 | 44.49470 | 41211 ft | 494 kts | 125° |
| 2026-04-29 19:19 | 48.68597 | 44.58447 | 41211 ft | 494 kts | 125° |
| 2026-04-29 19:19 | 48.65107 | 44.67388 | 41211 ft | 493 kts | 125° |
| 2026-04-29 19:20 | 48.61599 | 44.76298 | 41211 ft | 493 kts | 126° |
| 2026-04-29 19:20 | 48.58067 | 44.85167 | 41211 ft | 493 kts | 126° |
| 2026-04-29 19:21 | 48.54524 | 44.94026 | 41211 ft | 493 kts | 126° |
| 2026-04-29 19:21 | 48.50978 | 45.02881 | 41211 ft | 493 kts | 126° |
| 2026-04-29 19:22 | 48.47427 | 45.11727 | 41212 ft | 493 kts | 126° |
| 2026-04-29 19:22 | 48.43363 | 45.19847 | 41211 ft | 479 kts | 141° |
| 2026-04-29 19:23 | 48.38080 | 45.25604 | 41211 ft | 463 kts | 160° |
| 2026-04-29 19:23 | 48.32057 | 45.28460 | 41211 ft | 449 kts | 177° |
| 2026-04-29 19:24 | 48.25963 | 45.28403 | 41211 ft | 437 kts | 194° |
| 2026-04-29 19:24 | 48.20236 | 45.25685 | 41211 ft | 430 kts | 209° |
| 2026-04-29 19:25 | 48.15329 | 45.20702 | 41212 ft | 426 kts | 221° |
| 2026-04-29 19:25 | 48.10420 | 45.15705 | 41211 ft | 430 kts | 210° |
| 2026-04-29 19:26 | 48.04744 | 45.12778 | 41212 ft | 437 kts | 194° |
| 2026-04-29 19:26 | 47.98617 | 45.12584 | 41211 ft | 448 kts | 177° |
| 2026-04-29 19:27 | 47.92580 | 45.15310 | 41211 ft | 462 kts | 159° |
| 2026-04-29 19:27 | 47.87246 | 45.20840 | 41215 ft | 477 kts | 143° |
| 2026-04-29 19:28 | 47.81860 | 45.26543 | 41216 ft | 474 kts | 156° |
| 2026-04-29 19:28 | 47.76033 | 45.31200 | 41212 ft | 477 kts | 159° |
| 2026-04-29 19:29 | 47.70085 | 45.35633 | 41211 ft | 479 kts | 159° |
| 2026-04-29 19:29 | 47.64109 | 45.40023 | 41211 ft | 480 kts | 159° |
| 2026-04-29 19:30 | 47.58127 | 45.44428 | 41211 ft | 480 kts | 159° |
| 2026-04-29 19:30 | 47.52182 | 45.48812 | 41211 ft | 481 kts | 159° |
| 2026-04-29 19:31 | 47.46199 | 45.53218 | 41211 ft | 481 kts | 159° |
| 2026-04-29 19:31 | 47.40211 | 45.57615 | 41211 ft | 481 kts | 159° |
| 2026-04-29 19:32 | 47.34221 | 45.62002 | 41198 ft | 480 kts | 159° |
| 2026-04-29 19:32 | 47.29266 | 45.65692 | 41181 ft | 481 kts | 156° |
| 2026-04-29 19:32 | 47.25547 | 45.69458 | 41184 ft | 490 kts | 145° |
| 2026-04-29 19:33 | 47.23117 | 45.73005 | 41184 ft | 497 kts | 135° |
| 2026-04-29 19:33 | 47.19428 | 45.81759 | 41183 ft | 509 kts | 122° |
| 2026-04-29 19:34 | 47.16375 | 45.91170 | 41184 ft | 510 kts | 120° |
| 2026-04-29 19:34 | 47.13887 | 45.99025 | 41184 ft | 510 kts | 120° |
| 2026-04-29 19:35 | 47.10848 | 46.08445 | 41184 ft | 510 kts | 121° |
| 2026-04-29 19:35 | 47.07772 | 46.17820 | 41184 ft | 510 kts | 121° |
| 2026-04-29 19:36 | 47.03998 | 46.28528 | 41187 ft | 505 kts | 127° |
| 2026-04-29 19:36 | 47.00902 | 46.35858 | 41184 ft | 505 kts | 128° |
| 2026-04-29 19:37 | 46.97128 | 46.44520 | 41184 ft | 504 kts | 128° |
| 2026-04-29 19:37 | 46.93339 | 46.53158 | 41184 ft | 504 kts | 128° |
| 2026-04-29 19:38 | 46.89551 | 46.61797 | 41184 ft | 504 kts | 128° |
| 2026-04-29 19:38 | 46.85763 | 46.70429 | 41184 ft | 504 kts | 128° |
| 2026-04-29 19:39 | 46.81972 | 46.79043 | 41184 ft | 504 kts | 128° |
| 2026-04-29 19:39 | 46.78174 | 46.87647 | 41184 ft | 504 kts | 128° |
| 2026-04-29 19:40 | 46.74367 | 46.96243 | 41184 ft | 504 kts | 128° |
| 2026-04-29 19:40 | 46.70582 | 47.04763 | 41184 ft | 504 kts | 128° |
| 2026-04-29 19:41 | 46.66789 | 47.13352 | 41184 ft | 504 kts | 128° |
| 2026-04-29 19:41 | 46.63037 | 47.21990 | 41184 ft | 505 kts | 128° |
| 2026-04-29 19:42 | 46.59284 | 47.30615 | 41184 ft | 504 kts | 128° |
| 2026-04-29 19:42 | 46.55523 | 47.39210 | 41184 ft | 504 kts | 128° |
| 2026-04-29 19:43 | 46.51751 | 47.47786 | 41184 ft | 504 kts | 128° |
| 2026-04-29 19:43 | 46.47970 | 47.56351 | 41184 ft | 504 kts | 128° |
| 2026-04-29 19:44 | 46.44183 | 47.64907 | 41184 ft | 504 kts | 128° |
| 2026-04-29 19:44 | 46.40395 | 47.73440 | 41184 ft | 504 kts | 128° |
| 2026-04-29 19:45 | 46.36598 | 47.81967 | 41184 ft | 503 kts | 128° |
| 2026-04-29 19:45 | 46.32797 | 47.90479 | 41184 ft | 503 kts | 128° |
| 2026-04-29 19:46 | 46.29144 | 47.99136 | 41184 ft | 509 kts | 121° |
| 2026-04-29 19:46 | 46.26860 | 48.08914 | 41184 ft | 518 kts | 108° |
| 2026-04-29 19:47 | 46.25260 | 48.19095 | 41184 ft | 520 kts | 107° |
| 2026-04-29 19:47 | 46.23751 | 48.29315 | 41184 ft | 520 kts | 107° |
| 2026-04-29 19:48 | 46.22217 | 48.39466 | 41184 ft | 520 kts | 107° |
| 2026-04-29 19:48 | 46.20604 | 48.49637 | 41180 ft | 517 kts | 110° |
| 2026-04-29 19:49 | 46.17771 | 48.58997 | 41184 ft | 503 kts | 128° |
| 2026-04-29 19:49 | 46.13201 | 48.66389 | 41188 ft | 488 kts | 147° |
| 2026-04-29 19:50 | 46.07856 | 48.72345 | 41184 ft | 485 kts | 149° |
| 2026-04-29 19:50 | 46.02406 | 48.78089 | 41184 ft | 485 kts | 149° |
| 2026-04-29 19:51 | 45.96974 | 48.83838 | 41184 ft | 485 kts | 149° |
| 2026-04-29 19:51 | 45.91549 | 48.89628 | 41184 ft | 486 kts | 149° |
| 2026-04-29 19:52 | 45.86130 | 48.95425 | 41184 ft | 486 kts | 149° |
| 2026-04-29 19:52 | 45.80848 | 49.01403 | 41184 ft | 488 kts | 146° |
| 2026-04-29 19:53 | 45.75576 | 49.07621 | 41184 ft | 487 kts | 146° |
| 2026-04-29 19:53 | 45.70361 | 49.13718 | 41184 ft | 487 kts | 147° |
| 2026-04-29 19:54 | 45.62452 | 49.22838 | 41184 ft | 487 kts | 147° |
| 2026-04-29 19:54 | 45.57171 | 49.28890 | 41184 ft | 487 kts | 147° |
| 2026-04-29 19:55 | 45.51890 | 49.34930 | 41184 ft | 487 kts | 147° |
| 2026-04-29 19:55 | 45.46605 | 49.40962 | 41184 ft | 487 kts | 147° |
| 2026-04-29 19:56 | 45.41318 | 49.46982 | 41184 ft | 487 kts | 147° |
| 2026-04-29 19:56 | 45.36014 | 49.52974 | 41184 ft | 486 kts | 148° |
| 2026-04-29 19:57 | 45.31554 | 49.57801 | 41184 ft | 485 kts | 149° |
| 2026-04-29 19:57 | 45.25242 | 49.64537 | 41184 ft | 485 kts | 149° |
| 2026-04-29 19:58 | 45.19854 | 49.70309 | 41184 ft | 485 kts | 148° |
| 2026-04-29 19:58 | 45.14476 | 49.76081 | 41184 ft | 485 kts | 148° |
| 2026-04-29 19:59 | 45.09092 | 49.81852 | 41184 ft | 485 kts | 148° |
| 2026-04-29 19:59 | 45.03706 | 49.87609 | 41184 ft | 485 kts | 149° |
| 2026-04-29 20:00 | 44.98354 | 49.93316 | 41184 ft | 485 kts | 149° |
| 2026-04-29 20:00 | 44.92965 | 49.99048 | 41184 ft | 485 kts | 149° |
| 2026-04-29 20:01 | 44.87569 | 50.04773 | 41185 ft | 485 kts | 149° |
| 2026-04-29 20:01 | 44.82174 | 50.10483 | 41184 ft | 485 kts | 149° |
| 2026-04-29 20:02 | 44.76771 | 50.16189 | 41103 ft | 487 kts | 149° |
| 2026-04-29 20:02 | 44.76212 | 50.16778 | 41101 ft | 487 kts | 149° |
| 2026-04-29 20:03 | 44.72732 | 50.20410 | 41077 ft | 487 kts | 149° |
| 2026-04-29 20:04 | 44.69123 | 50.24099 | 41071 ft | 486 kts | 150° |
| 2026-04-29 20:04 | 44.63641 | 50.29665 | 41073 ft | 486 kts | 150° |
| 2026-04-29 20:05 | 44.58157 | 50.35240 | 41077 ft | 487 kts | 150° |
| 2026-04-29 20:05 | 44.58114 | 50.35283 | 41077 ft | 487 kts | 150° |
| 2026-04-29 20:06 | 44.56265 | 50.37164 | 41073 ft | 487 kts | 150° |
| 2026-04-29 20:06 | 44.50778 | 50.42745 | 41075 ft | 487 kts | 150° |
| 2026-04-29 20:07 | 44.45287 | 50.48318 | 41077 ft | 487 kts | 150° |
| 2026-04-29 20:07 | 44.39799 | 50.53874 | 41077 ft | 487 kts | 150° |
| 2026-04-29 20:08 | 44.35239 | 50.58481 | 41072 ft | 487 kts | 150° |
| 2026-04-29 20:08 | 44.28821 | 50.64948 | 41076 ft | 486 kts | 150° |
| 2026-04-29 20:09 | 44.23333 | 50.70464 | 41075 ft | 486 kts | 150° |
| 2026-04-29 20:09 | 44.17843 | 50.75969 | 41077 ft | 486 kts | 150° |
| 2026-04-29 20:10 | 44.12357 | 50.81458 | 41077 ft | 486 kts | 150° |
| 2026-04-29 20:10 | 44.06866 | 50.86937 | 41077 ft | 486 kts | 150° |
| 2026-04-29 20:11 | 44.01447 | 50.92343 | 41072 ft | 473 kts | 150° |
| 2026-04-29 20:11 | 43.96164 | 50.97597 | 41077 ft | 469 kts | 150° |
| 2026-04-29 20:12 | 43.90860 | 51.02848 | 41074 ft | 468 kts | 150° |
| 2026-04-29 20:12 | 43.85795 | 51.08582 | 41080 ft | 474 kts | 141° |
| 2026-04-29 20:13 | 43.81889 | 51.14032 | 41077 ft | 476 kts | 140° |
| 2026-04-29 20:13 | 43.76570 | 51.21720 | 41072 ft | 476 kts | 140° |
| 2026-04-29 20:14 | 43.71990 | 51.28339 | 41073 ft | 476 kts | 140° |
| 2026-04-29 20:14 | 43.67395 | 51.34931 | 41077 ft | 476 kts | 140° |
| 2026-04-29 20:15 | 43.62794 | 51.41501 | 41075 ft | 476 kts | 140° |
| 2026-04-29 20:15 | 43.58183 | 51.48067 | 41077 ft | 476 kts | 140° |
| 2026-04-29 20:16 | 43.53574 | 51.54616 | 41073 ft | 476 kts | 140° |
| 2026-04-29 20:16 | 43.48960 | 51.61158 | 41075 ft | 475 kts | 140° |
| 2026-04-29 20:17 | 43.44352 | 51.67678 | 41077 ft | 475 kts | 140° |
| 2026-04-29 20:17 | 43.39770 | 51.74145 | 41076 ft | 475 kts | 140° |
| 2026-04-29 20:18 | 43.35155 | 51.80643 | 41073 ft | 475 kts | 140° |
| 2026-04-29 20:18 | 43.30533 | 51.87122 | 41077 ft | 474 kts | 141° |
| 2026-04-29 20:19 | 43.26147 | 51.93110 | 41077 ft | 474 kts | 141° |
| 2026-04-29 20:19 | 43.21862 | 51.98908 | 41075 ft | 475 kts | 141° |
| 2026-04-29 20:20 | 43.17164 | 52.05274 | 41077 ft | 475 kts | 141° |
| 2026-04-29 20:20 | 43.12463 | 52.11652 | 41077 ft | 475 kts | 141° |
| 2026-04-29 20:21 | 43.07769 | 52.18016 | 41075 ft | 475 kts | 141° |
| 2026-04-29 20:21 | 43.03065 | 52.24375 | 41074 ft | 475 kts | 141° |
| 2026-04-29 20:22 | 42.99154 | 52.29650 | 41077 ft | 477 kts | 141° |
| 2026-04-29 20:22 | 42.94422 | 52.36017 | 41075 ft | 478 kts | 141° |
| 2026-04-29 20:23 | 42.89707 | 52.42350 | 41077 ft | 478 kts | 142° |
| 2026-04-29 20:23 | 42.85016 | 52.48637 | 41075 ft | 478 kts | 142° |
| 2026-04-29 20:24 | 42.80275 | 52.54977 | 41074 ft | 477 kts | 142° |
| 2026-04-29 20:24 | 42.75529 | 52.61309 | 41077 ft | 477 kts | 142° |
| 2026-04-29 20:25 | 42.70786 | 52.67621 | 41077 ft | 477 kts | 142° |
| 2026-04-29 20:25 | 42.66363 | 52.73494 | 41077 ft | 477 kts | 142° |
| 2026-04-29 20:26 | 42.61627 | 52.79770 | 41075 ft | 477 kts | 142° |
| 2026-04-29 20:26 | 42.56867 | 52.86062 | 41075 ft | 478 kts | 142° |
| 2026-04-29 20:27 | 42.52987 | 52.91183 | 41075 ft | 478 kts | 142° |
| 2026-04-29 20:27 | 42.47376 | 52.98570 | 41073 ft | 478 kts | 142° |
| 2026-04-29 20:28 | 42.42996 | 53.04323 | 41077 ft | 478 kts | 142° |
| 2026-04-29 20:28 | 42.38219 | 53.10584 | 41077 ft | 478 kts | 142° |
| 2026-04-29 20:29 | 42.33441 | 53.16834 | 41077 ft | 478 kts | 142° |
| 2026-04-29 20:29 | 42.28653 | 53.23081 | 41076 ft | 478 kts | 142° |
| 2026-04-29 20:30 | 42.23869 | 53.29309 | 41075 ft | 478 kts | 142° |
| 2026-04-29 20:30 | 42.19084 | 53.35536 | 41077 ft | 478 kts | 142° |
| 2026-04-29 20:31 | 42.14296 | 53.41751 | 41070 ft | 478 kts | 142° |
| 2026-04-29 20:31 | 42.09509 | 53.47952 | 41077 ft | 477 kts | 142° |
| 2026-04-29 20:32 | 42.04725 | 53.54136 | 41075 ft | 477 kts | 142° |
| 2026-04-29 20:32 | 41.99932 | 53.60315 | 41073 ft | 478 kts | 142° |
| 2026-04-29 20:33 | 41.95124 | 53.66501 | 41077 ft | 478 kts | 142° |
| 2026-04-29 20:33 | 41.90319 | 53.72672 | 41077 ft | 478 kts | 142° |
| 2026-04-29 20:34 | 41.85506 | 53.78839 | 41077 ft | 478 kts | 142° |
| 2026-04-29 20:34 | 41.80689 | 53.84997 | 41077 ft | 478 kts | 142° |
| 2026-04-29 20:35 | 41.75875 | 53.91137 | 41073 ft | 478 kts | 142° |
| 2026-04-29 20:35 | 41.71053 | 53.97274 | 41075 ft | 478 kts | 142° |
| 2026-04-29 20:36 | 41.66231 | 54.03399 | 41078 ft | 478 kts | 142° |
| 2026-04-29 20:36 | 41.61433 | 54.09479 | 41073 ft | 479 kts | 143° |
| 2026-04-29 20:37 | 41.56585 | 54.15608 | 41078 ft | 480 kts | 143° |
| 2026-04-29 20:37 | 41.51733 | 54.21732 | 41074 ft | 479 kts | 143° |
| 2026-04-29 20:38 | 41.46892 | 54.27828 | 41076 ft | 479 kts | 143° |
| 2026-04-29 20:38 | 41.42034 | 54.33931 | 41073 ft | 480 kts | 143° |
| 2026-04-29 20:39 | 41.37171 | 54.40026 | 41077 ft | 480 kts | 143° |
| 2026-04-29 20:39 | 41.32307 | 54.46113 | 41077 ft | 479 kts | 143° |
| 2026-04-29 20:40 | 41.27453 | 54.52174 | 41075 ft | 478 kts | 143° |
| 2026-04-29 20:40 | 41.22605 | 54.58211 | 41077 ft | 478 kts | 143° |
| 2026-04-29 20:41 | 41.17753 | 54.64240 | 41074 ft | 478 kts | 143° |
| 2026-04-29 20:41 | 41.12900 | 54.70259 | 41075 ft | 478 kts | 143° |
| 2026-04-29 20:42 | 41.08042 | 54.76271 | 41076 ft | 477 kts | 143° |
| 2026-04-29 20:42 | 41.03187 | 54.82268 | 41076 ft | 477 kts | 143° |
| 2026-04-29 20:43 | 40.98329 | 54.88257 | 41077 ft | 477 kts | 143° |
| 2026-04-29 20:43 | 40.93464 | 54.94248 | 41078 ft | 478 kts | 143° |
| 2026-04-29 20:44 | 40.88621 | 55.00183 | 41076 ft | 478 kts | 143° |
| 2026-04-29 20:44 | 40.83742 | 55.06149 | 41077 ft | 478 kts | 143° |
| 2026-04-29 20:45 | 40.78862 | 55.12109 | 41070 ft | 478 kts | 143° |
| 2026-04-29 20:45 | 40.73981 | 55.18058 | 41077 ft | 478 kts | 143° |
| 2026-04-29 20:46 | 40.69093 | 55.24004 | 41077 ft | 478 kts | 143° |
| 2026-04-29 20:46 | 40.64201 | 55.29942 | 41077 ft | 479 kts | 143° |
| 2026-04-29 20:47 | 40.59303 | 55.35875 | 41073 ft | 478 kts | 143° |
| 2026-04-29 20:47 | 40.54402 | 55.41798 | 41077 ft | 478 kts | 143° |
| 2026-04-29 20:48 | 40.49498 | 55.47714 | 41077 ft | 478 kts | 143° |
| 2026-04-29 20:48 | 40.44594 | 55.53618 | 41076 ft | 478 kts | 143° |
| 2026-04-29 20:49 | 40.39692 | 55.59507 | 41077 ft | 478 kts | 143° |
| 2026-04-29 20:49 | 40.34786 | 55.65387 | 41074 ft | 478 kts | 143° |
| 2026-04-29 20:50 | 40.29867 | 55.71271 | 41075 ft | 478 kts | 143° |
| 2026-04-29 20:50 | 40.24950 | 55.77149 | 41077 ft | 478 kts | 143° |
| 2026-04-29 20:51 | 40.20050 | 55.83039 | 41076 ft | 479 kts | 143° |
| 2026-04-29 20:51 | 40.15173 | 55.88899 | 41073 ft | 479 kts | 143° |
| 2026-04-29 20:52 | 40.10265 | 55.94779 | 41071 ft | 479 kts | 143° |
| 2026-04-29 20:52 | 40.05337 | 56.00666 | 41074 ft | 480 kts | 143° |
| 2026-04-29 20:53 | 40.00403 | 56.06550 | 41077 ft | 480 kts | 143° |
| 2026-04-29 20:53 | 39.95468 | 56.12423 | 41076 ft | 480 kts | 143° |
| 2026-04-29 20:54 | 39.88058 | 56.21218 | 41073 ft | 480 kts | 143° |
| 2026-04-29 20:55 | 39.83121 | 56.27057 | 41073 ft | 480 kts | 143° |
| 2026-04-29 20:55 | 39.78153 | 56.32860 | 41077 ft | 480 kts | 144° |
| 2026-04-29 20:56 | 39.73182 | 56.38647 | 41076 ft | 480 kts | 144° |
| 2026-04-29 20:56 | 39.68212 | 56.44432 | 41077 ft | 480 kts | 144° |
| 2026-04-29 20:57 | 39.63243 | 56.50210 | 41077 ft | 480 kts | 144° |
| 2026-04-29 20:57 | 39.58272 | 56.55981 | 41075 ft | 480 kts | 144° |
| 2026-04-29 20:58 | 39.53297 | 56.61744 | 41076 ft | 480 kts | 144° |
| 2026-04-29 20:58 | 39.48353 | 56.67458 | 41077 ft | 480 kts | 144° |
| 2026-04-29 20:59 | 39.43376 | 56.73200 | 41077 ft | 480 kts | 144° |
| 2026-04-29 20:59 | 39.38394 | 56.78938 | 41077 ft | 480 kts | 144° |
| 2026-04-29 21:00 | 39.33416 | 56.84681 | 41073 ft | 480 kts | 144° |
| 2026-04-29 21:00 | 39.30939 | 56.87547 | 40829 ft | 476 kts | 144° |
| 2026-04-29 21:00 | 39.28474 | 56.90395 | 40114 ft | 478 kts | 144° |
| 2026-04-29 21:00 | 39.25987 | 56.93261 | 39412 ft | 479 kts | 144° |
| 2026-04-29 21:01 | 39.23504 | 56.96122 | 38762 ft | 478 kts | 143° |
| 2026-04-29 21:01 | 39.21027 | 56.98975 | 38070 ft | 478 kts | 143° |
| 2026-04-29 21:01 | 39.18542 | 57.01830 | 37310 ft | 479 kts | 143° |
| 2026-04-29 21:01 | 39.16052 | 57.04690 | 36498 ft | 480 kts | 143° |
| 2026-04-29 21:02 | 39.13556 | 57.07554 | 35730 ft | 481 kts | 142° |
| 2026-04-29 21:02 | 39.11052 | 57.10424 | 34776 ft | 485 kts | 142° |
| 2026-04-29 21:02 | 39.08504 | 57.13340 | 33741 ft | 492 kts | 141° |
| 2026-04-29 21:02 | 39.05949 | 57.16265 | 32876 ft | 493 kts | 141° |
| 2026-04-29 21:03 | 39.03393 | 57.19190 | 32145 ft | 491 kts | 141° |
| 2026-04-29 21:03 | 39.00851 | 57.22099 | 31525 ft | 486 kts | 141° |
| 2026-04-29 21:03 | 38.98373 | 57.24929 | 30933 ft | 481 kts | 141° |
| 2026-04-29 21:03 | 38.95851 | 57.27806 | 30351 ft | 476 kts | 141° |
| 2026-04-29 21:04 | 38.93421 | 57.30574 | 29777 ft | 471 kts | 141° |
| 2026-04-29 21:04 | 38.90980 | 57.33351 | 29193 ft | 466 kts | 141° |
| 2026-04-29 21:04 | 38.88565 | 57.36096 | 28631 ft | 462 kts | 141° |
| 2026-04-29 21:04 | 38.86172 | 57.38814 | 28069 ft | 457 kts | 141° |
| 2026-04-29 21:05 | 38.83800 | 57.41504 | 27512 ft | 452 kts | 141° |
| 2026-04-29 21:05 | 38.81456 | 57.44162 | 26963 ft | 448 kts | 141° |
| 2026-04-29 21:05 | 38.79133 | 57.46793 | 26392 ft | 443 kts | 141° |
| 2026-04-29 21:05 | 38.76836 | 57.49391 | 25859 ft | 438 kts | 141° |
| 2026-04-29 21:06 | 38.74561 | 57.51963 | 25311 ft | 434 kts | 141° |
| 2026-04-29 21:06 | 38.72310 | 57.54506 | 24784 ft | 429 kts | 141° |
| 2026-04-29 21:06 | 38.70085 | 57.57016 | 24217 ft | 424 kts | 141° |
| 2026-04-29 21:06 | 38.67884 | 57.59498 | 23683 ft | 419 kts | 141° |
| 2026-04-29 21:07 | 38.65711 | 57.61947 | 23141 ft | 414 kts | 141° |
| 2026-04-29 21:07 | 38.63559 | 57.64368 | 22597 ft | 409 kts | 141° |
| 2026-04-29 21:07 | 38.62158 | 57.65970 | 22201 ft | 408 kts | 140° |
| 2026-04-29 21:07 | 38.59543 | 57.69449 | 21513 ft | 402 kts | 135° |
| 2026-04-29 21:08 | 38.57668 | 57.72080 | 20976 ft | 398 kts | 135° |
| 2026-04-29 21:08 | 38.55813 | 57.74682 | 20431 ft | 394 kts | 135° |
| 2026-04-29 21:08 | 38.53977 | 57.77251 | 19902 ft | 390 kts | 135° |
| 2026-04-29 21:08 | 38.52156 | 57.79792 | 19359 ft | 386 kts | 135° |
| 2026-04-29 21:09 | 38.50354 | 57.82305 | 18835 ft | 382 kts | 135° |
| 2026-04-29 21:09 | 38.48563 | 57.84799 | 18271 ft | 378 kts | 135° |
| 2026-04-29 21:09 | 38.46793 | 57.87260 | 17751 ft | 375 kts | 135° |
| 2026-04-29 21:09 | 38.45039 | 57.89698 | 17210 ft | 371 kts | 135° |
| 2026-04-29 21:10 | 38.43300 | 57.92112 | 16698 ft | 367 kts | 135° |
| 2026-04-29 21:10 | 38.41580 | 57.94499 | 16166 ft | 364 kts | 135° |
| 2026-04-29 21:10 | 38.39877 | 57.96862 | 15651 ft | 360 kts | 135° |
| 2026-04-29 21:10 | 38.38757 | 57.98413 | 15321 ft | 358 kts | 135° |
| 2026-04-29 21:11 | 38.37102 | 58.00705 | 14798 ft | 354 kts | 135° |
| 2026-04-29 21:11 | 38.35442 | 58.03001 | 14291 ft | 350 kts | 135° |
| 2026-04-29 21:11 | 38.33271 | 58.06004 | 13611 ft | 346 kts | 135° |
| 2026-04-29 21:11 | 38.31651 | 58.08242 | 13102 ft | 342 kts | 136° |
| 2026-04-29 21:12 | 38.30047 | 58.10454 | 12600 ft | 338 kts | 135° |
| 2026-04-29 21:12 | 38.28969 | 58.11938 | 12264 ft | 336 kts | 135° |
| 2026-04-29 21:12 | 38.27394 | 58.14108 | 11759 ft | 332 kts | 135° |
| 2026-04-29 21:12 | 38.25830 | 58.16264 | 11271 ft | 329 kts | 135° |
| 2026-04-29 21:13 | 38.24311 | 58.18359 | 11129 ft | 315 kts | 135° |
| 2026-04-29 21:13 | 38.22863 | 58.20355 | 10980 ft | 301 kts | 135° |
| 2026-04-29 21:13 | 38.21469 | 58.22275 | 10858 ft | 289 kts | 135° |
| 2026-04-29 21:13 | 38.20132 | 58.24113 | 10716 ft | 277 kts | 135° |
| 2026-04-29 21:14 | 38.18858 | 58.25863 | 10476 ft | 271 kts | 135° |
| 2026-04-29 21:14 | 38.17582 | 58.27612 | 10165 ft | 268 kts | 135° |
| 2026-04-29 21:14 | 38.16306 | 58.29362 | 9845 ft | 265 kts | 135° |
| 2026-04-29 21:14 | 38.15061 | 58.31067 | 9555 ft | 271 kts | 135° |
| 2026-04-29 21:15 | 38.13760 | 58.32844 | 9344 ft | 276 kts | 135° |
| 2026-04-29 21:15 | 38.12452 | 58.34635 | 9094 ft | 276 kts | 135° |
| 2026-04-29 21:15 | 38.11152 | 58.36416 | 8695 ft | 275 kts | 135° |
| 2026-04-29 21:15 | 38.09849 | 58.38199 | 8278 ft | 274 kts | 134° |
| 2026-04-29 21:16 | 38.08559 | 58.39963 | 7932 ft | 271 kts | 134° |
| 2026-04-29 21:16 | 38.07284 | 58.41706 | 7611 ft | 268 kts | 134° |
| 2026-04-29 21:16 | 38.06020 | 58.43431 | 7300 ft | 266 kts | 134° |
| 2026-04-29 21:16 | 38.04762 | 58.45150 | 6978 ft | 265 kts | 134° |
| 2026-04-29 21:17 | 38.03511 | 58.46856 | 6677 ft | 264 kts | 134° |
| 2026-04-29 21:17 | 38.02263 | 58.48558 | 6352 ft | 263 kts | 133° |
| 2026-04-29 21:17 | 38.01020 | 58.50253 | 6043 ft | 262 kts | 133° |
| 2026-04-29 21:17 | 37.99781 | 58.51941 | 5721 ft | 261 kts | 133° |
| 2026-04-29 21:18 | 37.98547 | 58.53621 | 5405 ft | 260 kts | 133° |
| 2026-04-29 21:18 | 37.97313 | 58.55300 | 5109 ft | 259 kts | 133° |
| 2026-04-29 21:18 | 37.96302 | 58.56675 | 4856 ft | 259 kts | 133° |
| 2026-04-29 21:18 | 37.95076 | 58.58342 | 4551 ft | 258 kts | 133° |
| 2026-04-29 21:19 | 37.93855 | 58.59998 | 4230 ft | 257 kts | 133° |
| 2026-04-29 21:19 | 37.92469 | 58.61402 | 3932 ft | 257 kts | 153° |
| 2026-04-29 21:19 | 37.90731 | 58.61755 | 3668 ft | 255 kts | 188° |
| 2026-04-29 21:19 | 37.89183 | 58.60829 | 3571 ft | 243 kts | 221° |
| 2026-04-29 21:20 | 37.88281 | 58.59104 | 3483 ft | 232 kts | 252° |
| 2026-04-29 21:20 | 37.88182 | 58.57134 | 3387 ft | 221 kts | 282° |
| 2026-04-29 21:20 | 37.88803 | 58.55430 | 3287 ft | 209 kts | 310° |
| 2026-04-29 21:20 | 37.89874 | 58.54279 | 3202 ft | 197 kts | 329° |
| 2026-04-29 21:21 | 37.91022 | 58.53395 | 3112 ft | 192 kts | 330° |
| 2026-04-29 21:21 | 37.91969 | 58.52372 | 3042 ft | 193 kts | 308° |
| 2026-04-29 21:21 | 37.92671 | 58.50975 | 2976 ft | 183 kts | 300° |
| 2026-04-29 21:21 | 37.93260 | 58.49608 | 2851 ft | 173 kts | 299° |
| 2026-04-29 21:22 | 37.93810 | 58.48251 | 2584 ft | 172 kts | 301° |
| 2026-04-29 21:22 | 37.94412 | 58.46954 | 2466 ft | 170 kts | 301° |
| 2026-04-29 21:22 | 37.95000 | 58.45637 | 2481 ft | 174 kts | 301° |
| 2026-04-29 21:22 | 37.95596 | 58.44278 | 2484 ft | 177 kts | 300° |
| 2026-04-29 21:23 | 37.96196 | 58.42915 | 2366 ft | 176 kts | 299° |
| 2026-04-29 21:23 | 37.96819 | 58.41517 | 1822 ft | 187 kts | 297° |
| 2026-04-29 21:23 | 37.97457 | 58.39963 | 927 ft | 208 kts | 298° |
| 2026-04-29 21:23 | 37.98147 | 58.38496 | 846 ft | 181 kts | 302° |
| 2026-04-29 21:24 | 37.98713 | 58.37191 | 732 ft | 161 kts | 303° |
| 2026-04-29 21:24 | 37.99256 | 58.36014 | 682 ft | 141 kts | 300° |
| 2026-04-29 21:24 | 37.99674 | 58.35087 | 683 ft | 94 kts | 299° |
| 2026-04-29 21:24 | 37.99824 | 58.34748 | 681 ft | 21 kts | 299° |
| 2026-04-29 21:25 | 37.99899 | 58.34579 | 679 ft | 23 kts | 299° |
| 2026-04-29 21:25 | 37.99983 | 58.34413 | 680 ft | 21 kts | 296° |
| 2026-04-29 21:25 | 37.99967 | 58.34294 | 682 ft | 9 kts | 221° |
| 2026-04-29 21:25 | 37.99948 | 58.34278 | 682 ft | 0 kts | 213° |
| 2026-04-29 21:28 | 37.99920 | 58.34257 | 683 ft | 9 kts | 205° |
| 2026-04-29 21:29 | 37.99841 | 58.34255 | 680 ft | 15 kts | 152° |
| 2026-04-29 21:29 | 37.99756 | 58.34375 | 680 ft | 22 kts | 121° |
| 2026-04-29 21:29 | 37.99674 | 58.34557 | 680 ft | 25 kts | 118° |
| 2026-04-29 21:29 | 37.99588 | 58.34757 | 678 ft | 27 kts | 118° |
| 2026-04-29 21:30 | 37.99491 | 58.34975 | 680 ft | 29 kts | 120° |
| 2026-04-29 21:30 | 37.99388 | 58.35206 | 680 ft | 31 kts | 120° |
| 2026-04-29 21:30 | 37.99279 | 58.35449 | 683 ft | 32 kts | 120° |
| 2026-04-29 21:30 | 37.99168 | 58.35697 | 678 ft | 33 kts | 120° |
| 2026-04-29 21:31 | 37.99050 | 58.35960 | 680 ft | 34 kts | 120° |
| 2026-04-29 21:31 | 37.98934 | 58.36222 | 680 ft | 35 kts | 119° |
| 2026-04-29 21:31 | 37.98834 | 58.36447 | 683 ft | 26 kts | 119° |
| 2026-04-29 21:31 | 37.98740 | 58.36631 | 684 ft | 21 kts | 140° |
| 2026-04-29 21:32 | 37.98672 | 58.36648 | 683 ft | 0 kts | 183° |
| 2026-04-29 21:32 | 37.98660 | 58.36644 | 678 ft | 6 kts | 194° |
| 2026-04-29 21:33 | 37.98598 | 58.36626 | 680 ft | 10 kts | 172° |
| 2026-04-29 21:33 | 37.98521 | 58.36660 | 681 ft | 8 kts | 160° |
| 2026-04-29 21:33 | 37.98519 | 58.36661 | 681 ft | 0 kts | 161° |
| 2026-04-29 21:33 | 37.98508 | 58.36664 | 683 ft | 5 kts | 165° |
| 2026-04-29 21:34 | 37.98489 | 58.36670 | 678 ft | 0 kts | 166° |
| 2026-04-29 21:48 | 37.98490 | 58.36670 | 678 ft | 0 kts | 166° |